Impacts TAF Board
For situational awareness. Not to be used for flight planning purposes.
IDs:

KEET - Alabaster/Shelby Cnt, AL, US

Issued at 1738 UTC 07 Dec 2021
Updated at 1855 UTC 07 Dec 2021
Potential Impact None Slight Moderate High
Time1753Z 07/19Z 07/20Z 07/21Z 07/22Z 07/23Z 08/00Z 08/01Z 08/02Z 08/03Z 08/04Z 08/05Z 08/06Z 08/07Z>>
Type OBS PRVL PRVL PRVL PRVL PRVL PRVL PRVL PRVL PRVL PRVL PRVL PRVL PRVL
  [PRB30]  
VIS 10 >6 >6 >6 >6 >6 >6 >6 >6 >6 >6 >6 >6 >6
  [4]  
CIG 40 40 40 40 40 40 40 40 40 13 13 13 13 9
  [6]  
Cover OVC OVC OVC OVC OVC OVC OVC OVC OVC OVC OVC OVC OVC OVC
  [OVC]  
FltCat VFR VFR VFR VFR VFR VFR VFR VFR VFR MVFR MVFR MVFR MVFR IFR
  [IFR]  
WX -- VCSH VCSH VCSH VCSH VCSH VCSH VCSH VCSH -- -- -- -- --
  [-SHRA BR]  
WDir VRB 80 80 80 80 80 80 80 80 VRB VRB VRB VRB VRB
[VRB]
WSpd 3 4 4 4 4 4 4 4 4 0 0 0 0 0
  [0]  
WGst -- -- -- -- -- -- -- -- -- -- -- -- -- --
  [--]  
WSHgt -- -- -- -- -- -- -- -- -- -- -- -- -- --
[--]
WSDir -- -- -- -- -- -- -- -- -- -- -- -- -- --
[--]
WSSpd -- -- -- -- -- -- -- -- -- -- -- -- -- --
[--]
Raw TAF
KEET 071738Z 0718/0818 08004KT P6SM VCSH OVC040
  FM080300 00000KT P6SM OVC013
  FM080700 00000KT P6SM OVC009
  PROB30 0807/0812 4SM -SHRA BR OVC006
  FM081200 00000KT P6SM BKN006
  FM081700 33005KT P6SM SCT008


Raw METAR
KEET 071753Z AUTO VRB03KT 10SM OVC040 07/01 A3014 RMK AO2 RAB23E48 SLP205 P0000 60000 T00720011 10083 20044 58017
KEET 071653Z AUTO 08004KT 10SM BKN044 OVC060 08/M01 A3017 RMK AO2 SLP215 T00781011
KEET 071553Z AUTO 05005KT 10SM OVC046 07/M02 A3019 RMK AO2 SLP222 T00671017

METAR Board
Radar Display
Forecast Discussion
For situational awareness. Not to be used for flight planning purposes.